sensor_id;sensor_type;location;lat;lon;timestamp;temperature;humidity
17968;DHT22;9109;48.050;11.696;2023-02-23T05:28:08;7.20;99.90
17968;DHT22;9109;48.050;11.696;2023-02-23T05:31:13;7.30;99.90
17968;DHT22;9109;48.050;11.696;2023-02-23T05:34:26;7.30;99.90
17968;DHT22;9109;48.050;11.696;2023-02-23T05:37:33;7.30;99.90
17968;DHT22;9109;48.050;11.696;2023-02-23T05:40:46;7.20;99.90
17968;DHT22;9109;48.050;11.696;2023-02-23T05:43:56;7.20;99.90
17968;DHT22;9109;48.050;11.696;2023-02-23T05:47:01;7.20;99.90
17968;DHT22;9109;48.050;11.696;2023-02-23T05:50:19;7.10;99.90
17968;DHT22;9109;48.050;11.696;2023-02-23T05:53:30;7.10;99.90
17968;DHT22;9109;48.050;11.696;2023-02-23T05:56:42;7.10;99.90
17968;DHT22;9109;48.050;11.696;2023-02-23T05:59:55;7.00;99.90
17968;DHT22;9109;48.050;11.696;2023-02-23T06:03:00;7.00;99.90
17968;DHT22;9109;48.050;11.696;2023-02-23T06:06:04;7.00;99.90
17968;DHT22;9109;48.050;11.696;2023-02-23T06:09:11;6.90;99.90
17968;DHT22;9109;48.050;11.696;2023-02-23T06:29:19;6.80;99.90
17968;DHT22;9109;48.050;11.696;2023-02-23T06:32:50;6.90;99.90
17968;DHT22;9109;48.050;11.696;2023-02-23T06:42:14;7.00;99.90
17968;DHT22;9109;48.050;11.696;2023-02-23T06:45:36;7.00;99.90
17968;DHT22;9109;48.050;11.696;2023-02-23T06:52:22;7.10;99.90
17968;DHT22;9109;48.050;11.696;2023-02-23T07:24:28;7.30;99.90
17968;DHT22;9109;48.050;11.696;2023-02-23T07:32:01;7.40;99.90
17968;DHT22;9109;48.050;11.696;2023-02-23T09:24:46;10.20;99.90
17968;DHT22;9109;48.050;11.696;2023-02-23T11:46:04;12.70;98.50
17968;DHT22;9109;48.050;11.696;2023-02-23T11:49:13;12.40;98.20
17968;DHT22;9109;48.050;11.696;2023-02-23T11:53:13;12.40;98.30
17968;DHT22;9109;48.050;11.696;2023-02-23T11:56:36;12.50;98.60
17968;DHT22;9109;48.050;11.696;2023-02-23T12:11:15;12.60;98.30
17968;DHT22;9109;48.050;11.696;2023-02-23T12:14:37;12.60;98.20
17968;DHT22;9109;48.050;11.696;2023-02-23T12:21:38;12.40;98.20
17968;DHT22;9109;48.050;11.696;2023-02-23T12:25:03;12.60;98.80
17968;DHT22;9109;48.050;11.696;2023-02-23T12:28:24;12.80;98.50
17968;DHT22;9109;48.050;11.696;2023-02-23T12:35:12;13.00;96.50
17968;DHT22;9109;48.050;11.696;2023-02-23T12:38:43;13.00;96.40
17968;DHT22;9109;48.050;11.696;2023-02-23T12:49:14;13.30;96.50
17968;DHT22;9109;48.050;11.696;2023-02-23T12:52:37;13.30;95.20
17968;DHT22;9109;48.050;11.696;2023-02-23T12:56:39;13.30;95.20
17968;DHT22;9109;48.050;11.696;2023-02-23T13:08:39;13.70;94.80
17968;DHT22;9109;48.050;11.696;2023-02-23T13:12:39;13.80;93.80
17968;DHT22;9109;48.050;11.696;2023-02-23T13:17:23;13.80;92.60
17968;DHT22;9109;48.050;11.696;2023-02-23T13:20:02;13.80;92.30
17968;DHT22;9109;48.050;11.696;2023-02-23T13:24:10;13.70;92.60
17968;DHT22;9109;48.050;11.696;2023-02-23T13:27:28;13.70;93.40
17968;DHT22;9109;48.050;11.696;2023-02-23T13:31:05;13.60;93.60
17968;DHT22;9109;48.050;11.696;2023-02-23T13:34:28;13.60;93.30
17968;DHT22;9109;48.050;11.696;2023-02-23T13:38:18;13.60;93.50
17968;DHT22;9109;48.050;11.696;2023-02-23T13:41:55;13.60;92.80
17968;DHT22;9109;48.050;11.696;2023-02-23T13:49:34;13.20;93.60
17968;DHT22;9109;48.050;11.696;2023-02-23T13:56:37;13.00;94.10
17968;DHT22;9109;48.050;11.696;2023-02-23T14:00:00;12.90;94.20
17968;DHT22;9109;48.050;11.696;2023-02-23T14:03:45;12.80;94.70
17968;DHT22;9109;48.050;11.696;2023-02-23T14:08:17;12.70;94.90
17968;DHT22;9109;48.050;11.696;2023-02-23T14:15:43;12.80;95.10
17968;DHT22;9109;48.050;11.696;2023-02-23T14:19:34;12.60;95.80
17968;DHT22;9109;48.050;11.696;2023-02-23T14:41:57;12.30;97.90
17968;DHT22;9109;48.050;11.696;2023-02-23T14:45:20;12.40;97.60
17968;DHT22;9109;48.050;11.696;2023-02-23T14:49:22;12.40;97.20
17968;DHT22;9109;48.050;11.696;2023-02-23T15:03:23;12.40;96.00
17968;DHT22;9109;48.050;11.696;2023-02-23T15:10:35;12.40;96.20
17968;DHT22;9109;48.050;11.696;2023-02-23T15:14:12;12.50;96.10
17968;DHT22;9109;48.050;11.696;2023-02-23T15:36:56;12.30;96.90
17968;DHT22;9109;48.050;11.696;2023-02-23T15:47:27;12.30;96.10
17968;DHT22;9109;48.050;11.696;2023-02-23T15:50:58;12.30;95.80
17968;DHT22;9109;48.050;11.696;2023-02-23T15:54:17;12.30;96.10
17968;DHT22;9109;48.050;11.696;2023-02-23T15:57:52;12.30;96.00
17968;DHT22;9109;48.050;11.696;2023-02-23T16:01:22;12.30;96.60
17968;DHT22;9109;48.050;11.696;2023-02-23T16:04:31;12.30;96.40
17968;DHT22;9109;48.050;11.696;2023-02-23T16:08:04;12.30;96.50
17968;DHT22;9109;48.050;11.696;2023-02-23T16:11:23;12.30;97.00
17968;DHT22;9109;48.050;11.696;2023-02-23T16:14:27;12.30;96.80
17968;DHT22;9109;48.050;11.696;2023-02-23T16:21:39;12.20;96.40
17968;DHT22;9109;48.050;11.696;2023-02-23T16:24:58;12.20;96.30
17968;DHT22;9109;48.050;11.696;2023-02-23T16:28:13;12.20;97.20
17968;DHT22;9109;48.050;11.696;2023-02-23T16:31:39;12.20;97.20
17968;DHT22;9109;48.050;11.696;2023-02-23T16:35:33;12.20;97.20
17968;DHT22;9109;48.050;11.696;2023-02-23T16:39:31;12.20;97.10
17968;DHT22;9109;48.050;11.696;2023-02-23T16:43:08;12.10;97.00
17968;DHT22;9109;48.050;11.696;2023-02-23T16:46:27;12.00;97.30
17968;DHT22;9109;48.050;11.696;2023-02-23T16:49:43;12.10;98.10
17968;DHT22;9109;48.050;11.696;2023-02-23T16:52:55;12.10;98.10
17968;DHT22;9109;48.050;11.696;2023-02-23T16:56:21;12.00;97.20
17968;DHT22;9109;48.050;11.696;2023-02-23T16:59:46;12.00;98.00
17968;DHT22;9109;48.050;11.696;2023-02-23T17:03:11;12.00;97.20
17968;DHT22;9109;48.050;11.696;2023-02-23T17:06:28;11.90;98.20
17968;DHT22;9109;48.050;11.696;2023-02-23T17:10:00;11.90;98.10
17968;DHT22;9109;48.050;11.696;2023-02-23T17:17:34;11.90;98.70
17968;DHT22;9109;48.050;11.696;2023-02-23T17:20:49;11.80;99.00
17968;DHT22;9109;48.050;11.696;2023-02-23T17:24:16;11.80;98.60
17968;DHT22;9109;48.050;11.696;2023-02-23T17:27:52;11.80;97.60
17968;DHT22;9109;48.050;11.696;2023-02-23T17:31:06;11.70;97.60
17968;DHT22;9109;48.050;11.696;2023-02-23T17:34:27;11.50;97.20
17968;DHT22;9109;48.050;11.696;2023-02-23T17:37:48;11.40;97.30
17968;DHT22;9109;48.050;11.696;2023-02-23T17:41:09;11.40;98.10
17968;DHT22;9109;48.050;11.696;2023-02-23T17:44:13;11.30;97.90
17968;DHT22;9109;48.050;11.696;2023-02-23T17:47:18;11.30;99.30
17968;DHT22;9109;48.050;11.696;2023-02-23T17:50:22;11.40;99.90
17968;DHT22;9109;48.050;11.696;2023-02-23T17:53:31;11.40;99.50
17968;DHT22;9109;48.050;11.696;2023-02-23T17:56:34;11.40;99.90
17968;DHT22;9109;48.050;11.696;2023-02-23T17:59:37;11.40;99.90
17968;DHT22;9109;48.050;11.696;2023-02-23T18:02:40;11.30;99.80
17968;DHT22;9109;48.050;11.696;2023-02-23T18:05:42;11.30;99.90
17968;DHT22;9109;48.050;11.696;2023-02-23T18:08:51;11.20;99.70
17968;DHT22;9109;48.050;11.696;2023-02-23T18:12:18;11.20;99.70
17968;DHT22;9109;48.050;11.696;2023-02-23T18:15:36;11.10;99.50
17968;DHT22;9109;48.050;11.696;2023-02-23T18:18:40;11.00;99.90
17968;DHT22;9109;48.050;11.696;2023-02-23T18:21:43;11.00;99.90
17968;DHT22;9109;48.050;11.696;2023-02-23T18:24:55;11.00;99.90
17968;DHT22;9109;48.050;11.696;2023-02-23T18:27:57;11.00;99.90
17968;DHT22;9109;48.050;11.696;2023-02-23T18:31:00;11.00;99.90
17968;DHT22;9109;48.050;11.696;2023-02-23T18:34:02;10.90;99.90
17968;DHT22;9109;48.050;11.696;2023-02-23T18:37:06;10.90;99.90
17968;DHT22;9109;48.050;11.696;2023-02-23T18:40:13;10.80;99.90
17968;DHT22;9109;48.050;11.696;2023-02-23T18:43:20;10.70;99.90
17968;DHT22;9109;48.050;11.696;2023-02-23T18:46:24;10.60;99.90
17968;DHT22;9109;48.050;11.696;2023-02-23T18:50:09;10.60;99.90
17968;DHT22;9109;48.050;11.696;2023-02-23T18:53:02;10.50;99.90
17968;DHT22;9109;48.050;11.696;2023-02-23T18:56:08;10.60;99.90
17968;DHT22;9109;48.050;11.696;2023-02-23T18:59:10;10.30;99.70
17968;DHT22;9109;48.050;11.696;2023-02-23T19:02:13;10.20;99.90
17968;DHT22;9109;48.050;11.696;2023-02-23T19:05:16;10.10;99.90
17968;DHT22;9109;48.050;11.696;2023-02-23T19:08:18;10.20;99.90
17968;DHT22;9109;48.050;11.696;2023-02-23T19:11:23;10.20;99.90
17968;DHT22;9109;48.050;11.696;2023-02-23T19:14:25;10.30;99.90
17968;DHT22;9109;48.050;11.696;2023-02-23T19:17:28;10.30;99.90
17968;DHT22;9109;48.050;11.696;2023-02-23T19:37:58;9.70;99.90
17968;DHT22;9109;48.050;11.696;2023-02-23T19:41:46;9.60;99.90
17968;DHT22;9109;48.050;11.696;2023-02-23T19:44:48;9.60;99.90
17968;DHT22;9109;48.050;11.696;2023-02-23T19:48:07;9.70;99.90
17968;DHT22;9109;48.050;11.696;2023-02-23T19:51:30;9.70;99.90
17968;DHT22;9109;48.050;11.696;2023-02-23T19:58:41;9.70;99.90
17968;DHT22;9109;48.050;11.696;2023-02-23T20:02:02;9.60;99.90
17968;DHT22;9109;48.050;11.696;2023-02-23T20:05:19;9.60;99.90
17968;DHT22;9109;48.050;11.696;2023-02-23T20:13:12;9.50;99.90
17968;DHT22;9109;48.050;11.696;2023-02-23T20:16:23;9.30;99.90
17968;DHT22;9109;48.050;11.696;2023-02-23T20:20:13;9.10;99.90
17968;DHT22;9109;48.050;11.696;2023-02-23T20:23:32;9.10;99.90
17968;DHT22;9109;48.050;11.696;2023-02-23T20:27:10;9.20;99.90
17968;DHT22;9109;48.050;11.696;2023-02-23T20:30:33;9.10;99.90
17968;DHT22;9109;48.050;11.696;2023-02-23T20:34:08;9.10;99.90
17968;DHT22;9109;48.050;11.696;2023-02-23T20:37:37;8.90;99.90
17968;DHT22;9109;48.050;11.696;2023-02-23T20:41:07;9.00;99.90
17968;DHT22;9109;48.050;11.696;2023-02-23T20:44:36;9.00;99.90
17968;DHT22;9109;48.050;11.696;2023-02-23T20:48:11;9.00;99.90
17968;DHT22;9109;48.050;11.696;2023-02-23T20:51:46;9.10;99.90
17968;DHT22;9109;48.050;11.696;2023-02-23T20:55:14;8.90;99.80
17968;DHT22;9109;48.050;11.696;2023-02-23T20:58:38;8.10;98.70
17968;DHT22;9109;48.050;11.696;2023-02-23T21:02:27;7.70;99.90
17968;DHT22;9109;48.050;11.696;2023-02-23T21:05:38;7.60;99.90
17968;DHT22;9109;48.050;11.696;2023-02-23T21:08:54;7.90;99.90
17968;DHT22;9109;48.050;11.696;2023-02-23T21:19:13;8.50;99.90
17968;DHT22;9109;48.050;11.696;2023-02-23T21:23:00;8.50;99.90
17968;DHT22;9109;48.050;11.696;2023-02-23T21:30:39;8.50;99.90
17968;DHT22;9109;48.050;11.696;2023-02-23T21:34:12;8.50;99.90
17968;DHT22;9109;48.050;11.696;2023-02-23T21:45:05;8.00;99.90
17968;DHT22;9109;48.050;11.696;2023-02-23T21:48:10;7.70;99.90
17968;DHT22;9109;48.050;11.696;2023-02-23T21:51:16;7.90;99.90
17968;DHT22;9109;48.050;11.696;2023-02-23T21:54:19;7.80;99.90
17968;DHT22;9109;48.050;11.696;2023-02-23T21:57:28;7.60;99.90
17968;DHT22;9109;48.050;11.696;2023-02-23T22:00:51;7.60;99.90
17968;DHT22;9109;48.050;11.696;2023-02-23T22:04:16;7.50;99.90
17968;DHT22;9109;48.050;11.696;2023-02-23T22:07:35;7.40;99.90
17968;DHT22;9109;48.050;11.696;2023-02-23T22:10:44;7.50;99.90
17968;DHT22;9109;48.050;11.696;2023-02-23T22:14:25;7.80;99.90
17968;DHT22;9109;48.050;11.696;2023-02-23T22:17:57;8.00;99.90
17968;DHT22;9109;48.050;11.696;2023-02-23T22:21:12;8.10;99.90
17968;DHT22;9109;48.050;11.696;2023-02-23T22:24:34;8.20;99.90
17968;DHT22;9109;48.050;11.696;2023-02-23T22:31:39;8.30;99.90
17968;DHT22;9109;48.050;11.696;2023-02-23T22:39:14;8.20;99.90
17968;DHT22;9109;48.050;11.696;2023-02-23T22:42:32;8.00;99.90
17968;DHT22;9109;48.050;11.696;2023-02-23T22:45:37;8.00;99.90
17968;DHT22;9109;48.050;11.696;2023-02-23T22:48:45;8.10;99.90
17968;DHT22;9109;48.050;11.696;2023-02-23T22:51:48;8.10;99.90
17968;DHT22;9109;48.050;11.696;2023-02-23T22:55:07;8.00;99.90
17968;DHT22;9109;48.050;11.696;2023-02-23T22:58:35;8.00;99.90
17968;DHT22;9109;48.050;11.696;2023-02-23T23:01:42;8.00;99.90
17968;DHT22;9109;48.050;11.696;2023-02-23T23:05:00;8.10;99.90
17968;DHT22;9109;48.050;11.696;2023-02-23T23:08:12;8.00;99.90
17968;DHT22;9109;48.050;11.696;2023-02-23T23:11:23;8.00;99.90
17968;DHT22;9109;48.050;11.696;2023-02-23T23:14:29;8.00;99.90
17968;DHT22;9109;48.050;11.696;2023-02-23T23:17:42;8.00;99.90
17968;DHT22;9109;48.050;11.696;2023-02-23T23:20:59;7.80;99.90
17968;DHT22;9109;48.050;11.696;2023-02-23T23:24:19;7.50;99.90
17968;DHT22;9109;48.050;11.696;2023-02-23T23:27:34;7.50;99.90
17968;DHT22;9109;48.050;11.696;2023-02-23T23:30:41;7.60;99.90
17968;DHT22;9109;48.050;11.696;2023-02-23T23:33:47;7.60;99.90
17968;DHT22;9109;48.050;11.696;2023-02-23T23:36:53;7.60;99.90
17968;DHT22;9109;48.050;11.696;2023-02-23T23:39:57;7.50;99.90
17968;DHT22;9109;48.050;11.696;2023-02-23T23:43:01;7.50;99.90
17968;DHT22;9109;48.050;11.696;2023-02-23T23:46:07;7.50;99.90
17968;DHT22;9109;48.050;11.696;2023-02-23T23:49:15;7.40;99.90
17968;DHT22;9109;48.050;11.696;2023-02-23T23:52:31;7.40;99.90
17968;DHT22;9109;48.050;11.696;2023-02-23T23:55:46;7.40;99.90
